Time,TemperatureF,DewpointF,PressureIn,WindDirection,WindDirectionDegrees,WindSpeedMPH,WindSpeedGustMPH,Humidity,HourlyPrecipIn,Conditions,Clouds,dailyrainin,SoftwareType,DateUTC
2013-08-28 00:00:00,76.1,69.9,30.01,SSW,203,0.0,0.0,81,0.00,,,0.00,WUHU216HW,2013-08-28 04:00:00,
2013-08-28 00:01:00,76.1,69.9,30.01,SSW,203,0.0,0.0,81,0.00,,,0.00,WUHU216HW,2013-08-28 04:01:00,
2013-08-28 00:06:00,76.1,69.9,30.01,SSW,203,0.0,0.0,81,0.00,,,0.00,WUHU216HW,2013-08-28 04:06:00,
2013-08-28 00:30:00,76.0,69.8,30.00,SSW,203,0.0,0.0,81,0.00,,,0.00,WUHU216HW,2013-08-28 04:30:00,
2013-08-28 00:35:00,76.0,69.8,30.00,SSW,203,0.0,0.0,81,0.00,,,0.00,WUHU216HW,2013-08-28 04:35:00,
2013-08-28 01:00:00,75.8,69.9,29.99,South,180,0.0,0.0,82,0.00,,,0.00,WUHU216HW,2013-08-28 05:00:00,
2013-08-28 01:05:00,75.8,69.9,29.99,South,180,0.0,0.0,82,0.00,,,0.00,WUHU216HW,2013-08-28 05:05:00,
2013-08-28 01:30:00,75.2,69.8,30.00,SSE,158,1.1,1.1,83,0.00,,,0.00,WUHU216HW,2013-08-28 05:30:00,
2013-08-28 01:35:00,75.2,69.8,30.00,SSE,158,1.1,1.1,83,0.00,,,0.00,WUHU216HW,2013-08-28 05:35:00,
2013-08-28 02:00:00,74.7,69.6,29.98,South,180,0.0,0.0,84,0.00,,,0.00,WUHU216HW,2013-08-28 06:00:00,
2013-08-28 02:05:00,74.7,69.6,29.98,South,180,0.0,0.0,84,0.00,,,0.00,WUHU216HW,2013-08-28 06:05:00,
2013-08-28 02:30:00,74.3,69.6,29.98,South,180,0.0,0.0,85,0.00,,,0.00,WUHU216HW,2013-08-28 06:30:00,
2013-08-28 02:35:00,74.3,69.6,29.98,South,180,0.0,0.0,85,0.00,,,0.00,WUHU216HW,2013-08-28 06:35:00,
2013-08-28 03:00:00,74.2,69.8,29.97,SW,225,0.2,0.2,86,0.00,,,0.00,WUHU216HW,2013-08-28 07:00:00,
2013-08-28 03:05:00,74.2,69.8,29.97,SW,225,0.2,0.2,86,0.00,,,0.00,WUHU216HW,2013-08-28 07:05:00,
2013-08-28 03:30:00,74.0,69.6,29.97,SW,225,0.0,0.0,86,0.00,,,0.00,WUHU216HW,2013-08-28 07:30:00,
2013-08-28 03:35:00,74.0,69.6,29.97,SW,225,0.0,0.0,86,0.00,,,0.00,WUHU216HW,2013-08-28 07:35:00,
2013-08-28 04:00:00,73.8,69.4,29.97,SW,225,0.0,0.0,86,0.00,,,0.00,WUHU216HW,2013-08-28 08:00:00,
2013-08-28 04:05:00,73.8,69.4,29.97,SW,225,0.0,0.0,86,0.00,,,0.00,WUHU216HW,2013-08-28 08:05:00,
2013-08-28 04:30:00,73.6,69.2,29.96,SW,225,0.0,0.0,86,0.00,,,0.00,WUHU216HW,2013-08-28 08:30:00,
2013-08-28 04:35:00,73.6,69.2,29.96,SW,225,0.0,0.0,86,0.00,,,0.00,WUHU216HW,2013-08-28 08:35:00,
2013-08-28 05:00:00,73.1,68.7,29.97,SW,225,0.0,0.0,86,0.00,,,0.00,WUHU216HW,2013-08-28 09:00:00,
2013-08-28 05:05:00,73.1,68.7,29.97,SW,225,0.0,0.0,86,0.00,,,0.00,WUHU216HW,2013-08-28 09:05:00,
2013-08-28 05:30:00,72.9,68.5,29.97,SW,225,0.0,0.0,86,0.00,,,0.00,WUHU216HW,2013-08-28 09:30:00,
2013-08-28 05:34:00,72.9,68.5,29.97,SW,225,0.0,0.0,86,0.00,,,0.00,WUHU216HW,2013-08-28 09:34:00,
2013-08-28 05:39:00,72.9,68.5,29.97,SW,225,0.0,0.0,86,0.00,,,0.00,WUHU216HW,2013-08-28 09:39:00,
2013-08-28 06:00:00,72.7,68.0,29.97,SW,225,0.0,0.0,85,0.00,,,0.00,WUHU216HW,2013-08-28 10:00:00,
2013-08-28 06:05:00,72.7,68.0,29.97,SW,225,0.0,0.0,85,0.00,,,0.00,WUHU216HW,2013-08-28 10:05:00,
2013-08-28 06:30:00,72.7,68.0,29.98,SW,225,0.0,0.0,85,0.00,,,0.00,WUHU216HW,2013-08-28 10:30:00,
2013-08-28 06:35:00,72.7,68.0,29.98,SW,225,0.0,0.0,85,0.00,,,0.00,WUHU216HW,2013-08-28 10:35:00,
2013-08-28 07:00:00,72.5,67.8,29.99,SSW,203,0.0,0.0,85,0.00,,,0.00,WUHU216HW,2013-08-28 11:00:00,
2013-08-28 07:05:00,72.5,67.8,29.99,SSW,203,0.0,0.0,85,0.00,,,0.00,WUHU216HW,2013-08-28 11:05:00,
2013-08-28 07:30:00,72.7,68.0,29.99,SSW,203,0.0,0.0,85,0.00,,,0.00,WUHU216HW,2013-08-28 11:30:00,
2013-08-28 07:35:00,72.7,68.0,29.99,SSW,203,0.0,0.0,85,0.00,,,0.00,WUHU216HW,2013-08-28 11:35:00,
2013-08-28 08:00:00,73.4,68.7,30.00,NNW,338,0.0,0.0,85,0.00,,,0.00,WUHU216HW,2013-08-28 12:00:00,
2013-08-28 08:05:00,73.4,68.7,30.00,NNW,338,0.0,0.0,85,0.00,,,0.00,WUHU216HW,2013-08-28 12:05:00,
2013-08-28 08:30:00,73.8,69.0,30.00,NW,315,0.0,0.0,85,0.00,,,0.00,WUHU216HW,2013-08-28 12:30:00,
2013-08-28 08:35:00,73.8,69.0,30.00,NW,315,0.0,0.0,85,0.00,,,0.00,WUHU216HW,2013-08-28 12:35:00,
2013-08-28 09:00:00,74.5,69.8,29.99,NW,315,0.0,0.0,85,0.00,,,0.00,WUHU216HW,2013-08-28 13:00:00,
2013-08-28 09:05:00,74.5,69.8,29.99,NW,315,0.0,0.0,85,0.00,,,0.00,WUHU216HW,2013-08-28 13:05:00,
2013-08-28 09:30:00,75.1,70.3,30.00,WNW,293,0.0,0.0,85,0.00,,,0.00,WUHU216HW,2013-08-28 13:30:00,
2013-08-28 09:35:00,75.1,70.3,30.00,WNW,293,0.0,0.0,85,0.00,,,0.00,WUHU216HW,2013-08-28 13:35:00,
2013-08-28 10:00:00,75.4,70.7,30.01,North,0,0.0,0.0,85,0.00,,,0.00,WUHU216HW,2013-08-28 14:00:00,
2013-08-28 10:05:00,75.4,70.7,30.01,North,0,0.0,0.0,85,0.00,,,0.00,WUHU216HW,2013-08-28 14:05:00,
2013-08-28 10:30:00,76.0,71.2,30.01,NNE,23,0.0,0.0,85,0.00,,,0.00,WUHU216HW,2013-08-28 14:30:00,
2013-08-28 10:35:00,76.0,71.2,30.01,NNE,23,0.0,0.0,85,0.00,,,0.00,WUHU216HW,2013-08-28 14:35:00,
2013-08-28 11:00:00,77.0,72.2,30.02,NNE,23,0.0,0.0,85,0.00,,,0.00,WUHU216HW,2013-08-28 15:00:00,
2013-08-28 11:05:00,77.0,72.2,30.02,NNE,23,0.0,0.0,85,0.00,,,0.00,WUHU216HW,2013-08-28 15:05:00,
2013-08-28 11:30:00,77.9,72.4,30.02,NNE,23,0.0,0.0,83,0.00,,,0.00,WUHU216HW,2013-08-28 15:30:00,
2013-08-28 11:35:00,77.9,72.4,30.02,NNE,23,0.0,0.0,83,0.00,,,0.00,WUHU216HW,2013-08-28 15:35:00,
2013-08-28 12:00:00,78.5,72.9,30.02,NNE,23,0.0,0.0,83,0.00,,,0.00,WUHU216HW,2013-08-28 16:00:00,
2013-08-28 12:05:00,78.5,72.9,30.02,NNE,23,0.0,0.0,83,0.00,,,0.00,WUHU216HW,2013-08-28 16:05:00,
2013-08-28 12:30:00,78.7,73.1,30.01,NNE,23,0.0,0.0,83,0.00,,,0.00,WUHU216HW,2013-08-28 16:30:00,
2013-08-28 12:35:00,78.7,73.1,30.01,NNE,23,0.0,0.0,83,0.00,,,0.00,WUHU216HW,2013-08-28 16:35:00,
2013-08-28 13:00:00,78.8,73.3,30.02,NNE,23,0.0,0.0,83,0.00,,,0.00,WUHU216HW,2013-08-28 17:00:00,
2013-08-28 13:05:00,78.8,73.3,30.02,NNE,23,0.0,0.0,83,0.00,,,0.00,WUHU216HW,2013-08-28 17:05:00,
2013-08-28 13:30:00,78.8,74.0,30.01,NNE,23,0.0,0.0,85,0.01,,,0.00,WUHU216HW,2013-08-28 17:30:00,
2013-08-28 13:35:00,78.8,74.0,30.01,NNE,23,0.0,0.0,85,0.01,,,0.00,WUHU216HW,2013-08-28 17:35:00,
2013-08-28 14:00:00,78.7,73.8,29.99,NNE,23,0.0,0.0,85,0.01,,,0.00,WUHU216HW,2013-08-28 18:00:00,
2013-08-28 14:05:00,78.7,73.8,29.99,NNE,23,0.0,0.0,85,0.01,,,0.00,WUHU216HW,2013-08-28 18:05:00,
2013-08-28 14:30:00,78.7,74.2,29.98,NNE,23,0.0,0.0,86,0.00,,,0.00,WUHU216HW,2013-08-28 18:30:00,
2013-08-28 14:35:00,78.7,74.2,29.98,NNE,23,0.0,0.0,86,0.00,,,0.00,WUHU216HW,2013-08-28 18:35:00,
2013-08-28 15:00:00,78.7,74.2,29.98,North,0,0.0,0.0,86,0.00,,,0.00,WUHU216HW,2013-08-28 19:00:00,
2013-08-28 15:05:00,78.7,74.2,29.98,North,0,0.0,0.0,86,0.00,,,0.00,WUHU216HW,2013-08-28 19:05:00,
2013-08-28 15:30:00,78.8,74.7,29.97,North,0,0.0,0.0,87,0.00,,,0.00,WUHU216HW,2013-08-28 19:30:00,
2013-08-28 15:35:00,78.8,74.7,29.97,North,0,0.0,0.0,87,0.00,,,0.00,WUHU216HW,2013-08-28 19:35:00,
2013-08-28 16:00:00,78.7,74.5,29.96,North,0,0.0,0.0,87,0.00,,,0.00,WUHU216HW,2013-08-28 20:00:00,
2013-08-28 16:05:00,78.7,74.5,29.96,North,0,0.0,0.0,87,0.00,,,0.00,WUHU216HW,2013-08-28 20:05:00,
2013-08-28 16:30:00,78.8,74.7,29.95,North,0,0.0,0.0,87,0.00,,,0.00,WUHU216HW,2013-08-28 20:30:00,
2013-08-28 16:35:00,78.8,74.7,29.95,North,0,0.0,0.0,87,0.00,,,0.00,WUHU216HW,2013-08-28 20:35:00,
2013-08-28 17:00:00,78.8,74.7,29.95,North,0,0.0,0.0,87,0.00,,,0.00,WUHU216HW,2013-08-28 21:00:00,
2013-08-28 17:05:00,78.8,74.7,29.95,North,0,0.0,0.0,87,0.00,,,0.00,WUHU216HW,2013-08-28 21:05:00,
2013-08-28 17:30:00,79.0,74.9,29.94,North,0,0.0,0.0,87,0.00,,,0.00,WUHU216HW,2013-08-28 21:30:00,
2013-08-28 17:35:00,79.0,74.9,29.94,North,0,0.0,0.0,87,0.00,,,0.00,WUHU216HW,2013-08-28 21:35:00,
2013-08-28 18:00:00,79.2,75.1,29.94,North,0,0.0,0.0,87,0.00,,,0.00,WUHU216HW,2013-08-28 22:00:00,
2013-08-28 18:05:00,79.2,75.1,29.94,North,0,0.0,0.0,87,0.00,,,0.00,WUHU216HW,2013-08-28 22:05:00,
2013-08-28 18:30:00,79.9,75.0,29.94,North,0,0.0,0.0,85,0.00,,,0.00,WUHU216HW,2013-08-28 22:30:00,
2013-08-28 18:35:00,79.9,75.0,29.94,North,0,0.0,0.0,85,0.00,,,0.00,WUHU216HW,2013-08-28 22:35:00,
2013-08-28 19:00:00,79.4,74.5,29.94,SE,135,0.0,0.0,85,0.00,,,0.00,WUHU216HW,2013-08-28 23:00:00,
2013-08-28 19:05:00,79.4,74.5,29.94,SE,135,0.0,0.0,85,0.00,,,0.00,WUHU216HW,2013-08-28 23:05:00,
2013-08-28 19:30:00,78.8,74.3,29.93,SSE,158,0.0,0.0,86,0.00,,,0.00,WUHU216HW,2013-08-28 23:30:00,
2013-08-28 19:35:00,78.8,74.3,29.93,SSE,158,0.0,0.0,86,0.00,,,0.00,WUHU216HW,2013-08-28 23:35:00,
2013-08-28 20:00:00,78.5,74.3,29.92,South,180,0.0,0.0,87,0.00,,,0.00,WUHU216HW,2013-08-29 00:00:00,
2013-08-28 20:05:00,78.5,74.3,29.92,South,180,0.0,0.0,87,0.00,,,0.00,WUHU216HW,2013-08-29 00:05:00,
2013-08-28 20:30:00,78.1,74.0,29.92,South,180,0.0,0.0,87,0.00,,,0.00,WUHU216HW,2013-08-29 00:30:00,
2013-08-28 20:35:00,78.1,74.0,29.92,South,180,0.0,0.0,87,0.00,,,0.00,WUHU216HW,2013-08-29 00:35:00,
2013-08-28 21:00:00,77.6,73.4,29.93,South,180,0.0,0.0,87,0.00,,,0.00,WUHU216HW,2013-08-29 01:00:00,
2013-08-28 21:05:00,77.6,73.4,29.93,South,180,0.0,0.0,87,0.00,,,0.00,WUHU216HW,2013-08-29 01:05:00,
2013-08-28 21:30:00,77.4,73.6,29.93,SSW,203,0.0,0.0,88,0.00,,,0.00,WUHU216HW,2013-08-29 01:30:00,
2013-08-28 21:35:00,77.4,73.6,29.93,SSW,203,0.0,0.0,88,0.00,,,0.00,WUHU216HW,2013-08-29 01:35:00,
2013-08-28 22:00:00,77.2,73.4,29.93,SSW,203,0.0,0.0,88,0.00,,,0.00,WUHU216HW,2013-08-29 02:00:00,
2013-08-28 22:05:00,77.2,73.4,29.93,SSW,203,0.0,0.0,88,0.00,,,0.00,WUHU216HW,2013-08-29 02:05:00,
2013-08-28 22:30:00,77.0,73.3,29.92,SSW,203,0.0,0.0,88,0.00,,,0.00,WUHU216HW,2013-08-29 02:30:00,
2013-08-28 22:35:00,77.0,73.3,29.92,SSW,203,0.0,0.0,88,0.00,,,0.00,WUHU216HW,2013-08-29 02:35:00,
2013-08-28 23:00:00,76.9,73.1,29.91,SSW,203,0.0,0.0,88,0.00,,,0.00,WUHU216HW,2013-08-29 03:00:00,
2013-08-28 23:05:00,76.9,73.1,29.91,SSW,203,0.0,0.0,88,0.00,,,0.00,WUHU216HW,2013-08-29 03:05:00,
2013-08-28 23:30:00,76.7,72.9,29.89,SW,225,0.0,0.0,88,0.00,,,0.00,WUHU216HW,2013-08-29 03:30:00,
2013-08-28 23:35:00,76.7,72.9,29.89,SW,225,0.0,0.0,88,0.00,,,0.00,WUHU216HW,2013-08-29 03:35:00,